Time;durP1;ratioP1;P1;durP2;ratioP2;P2;SDS_P1;SDS_P2;PMS_P1;PMS_P2;Temp;Humidity;BMP_temperature;BMP_pressure;BME280_temperature;BME280_humidity;BME280_pressure;Samples;Min_cycle;Max_cycle;Signal;HPM_P1;HPM_P2
2023/09/23 00:01:15;;;;;;;2.90;0.30;;;;;;;13.52;68.31;100021.69;5036232;28;20029;-80
2023/09/23 00:03:41;;;;;;;2.90;0.35;;;;;;;13.51;68.63;100025.25;5049803;28;20040;-81
2023/09/23 00:06:06;;;;;;;3.10;0.60;;;;;;;13.52;68.56;100022.56;5049872;28;20056;-80
2023/09/23 00:08:32;;;;;;;1.77;0.22;;;;;;;13.54;68.43;100025.16;5083715;28;20484;-82
2023/09/23 00:10:57;;;;;;;3.30;0.30;;;;;;;13.53;68.58;100028.72;5089896;28;20032;-82
2023/09/23 00:13:23;;;;;;;2.77;0.30;;;;;;;13.54;68.65;100030.47;5089245;28;20020;-82
2023/09/23 00:15:52;;;;;;;3.67;0.52;;;;;;;13.52;68.79;100030.50;5069544;28;20097;-81
2023/09/23 00:18:18;;;;;;;2.78;0.30;;;;;;;13.53;68.67;100028.72;5069311;28;20037;-86
2023/09/23 00:20:46;;;;;;;3.53;0.20;;;;;;;13.51;69.07;100028.78;5069605;28;20384;-86
2023/09/23 00:23:14;;;;;;;3.20;0.20;;;;;;;13.51;68.37;100031.41;5069727;28;20250;-80
2023/09/23 00:25:39;;;;;;;2.83;0.30;;;;;;;13.51;68.78;100030.53;5065587;28;20033;-80
2023/09/23 00:28:11;;;;;;;2.73;0.70;;;;;;;13.48;68.64;100034.97;5049561;28;20484;-85
2023/09/23 00:30:37;;;;;;;4.30;0.40;;;;;;;13.46;68.76;100027.97;5049618;28;20159;-86
2023/09/23 00:33:02;;;;;;;3.90;0.30;;;;;;;13.46;68.74;100034.13;5049041;28;20536;-81
2023/09/23 00:35:28;;;;;;;5.90;0.30;;;;;;;13.46;68.76;100034.13;5049293;28;20108;-80
2023/09/23 00:37:53;;;;;;;2.33;0.30;;;;;;;13.45;68.75;100027.09;5049314;28;20025;-80
2023/09/23 00:40:30;;;;;;;2.55;0.40;;;;;;;13.41;68.96;100029.81;5049317;28;20060;-80
2023/09/23 00:42:56;;;;;;;3.70;0.30;;;;;;;13.37;68.59;100034.28;5055019;28;20020;-85
2023/09/23 00:45:24;;;;;;;2.00;0.30;;;;;;;13.35;68.96;100038.72;5069617;28;20025;-85
2023/09/23 00:47:49;;;;;;;3.80;0.40;;;;;;;13.37;68.88;100046.63;5069135;28;20029;-81
2023/09/23 00:50:19;;;;;;;2.20;0.33;;;;;;;13.38;68.66;100046.59;5069283;28;20021;-80
2023/09/23 00:52:48;;;;;;;3.78;0.38;;;;;;;13.40;68.71;100038.63;5069237;28;20031;-80
2023/09/23 00:55:16;;;;;;;4.50;0.30;;;;;;;13.41;68.59;100050.97;5069150;28;20025;-80
2023/09/23 00:57:43;;;;;;;2.67;0.30;;;;;;;13.36;68.51;100051.03;5053057;28;20033;-80
2023/09/23 01:00:23;;;;;;;3.17;0.40;;;;;;;13.32;68.51;100049.34;5058903;28;20082;-85
2023/09/23 01:02:49;;;;;;;3.47;0.30;;;;;;;13.30;68.59;100053.81;5069067;28;20028;-85
2023/09/23 01:05:18;;;;;;;2.45;0.30;;;;;;;13.27;68.56;100053.88;5069302;28;20464;-86
2023/09/23 01:07:45;;;;;;;1.83;0.30;;;;;;;13.25;68.59;100050.38;5079257;28;20028;-85
2023/09/23 01:10:12;;;;;;;3.22;0.30;;;;;;;13.23;68.50;100053.03;5089251;28;20077;-83
2023/09/23 01:12:37;;;;;;;2.25;0.52;;;;;;;13.19;68.95;100054.91;5058312;28;20079;-83
2023/09/23 01:15:03;;;;;;;3.93;0.37;;;;;;;13.14;68.82;100048.81;5048880;28;20021;-84
2023/09/23 01:17:29;;;;;;;2.47;0.30;;;;;;;13.11;68.91;100048.00;5048914;28;20048;-86
2023/09/23 01:19:54;;;;;;;4.37;0.40;;;;;;;13.11;69.01;100048.84;5051916;28;20115;-80
2023/09/23 01:22:23;;;;;;;2.13;0.30;;;;;;;13.10;68.99;100046.25;5052935;28;20075;-80
2023/09/23 01:24:49;;;;;;;3.97;0.50;;;;;;;13.08;69.12;100048.91;5052840;28;20025;-81
2023/09/23 01:27:14;;;;;;;3.83;0.30;;;;;;;13.07;69.05;100053.34;5052575;28;20087;-80
2023/09/23 01:29:39;;;;;;;3.00;0.63;;;;;;;13.06;68.90;100053.34;5052587;28;20068;-85
2023/09/23 01:32:30;;;;;;;2.43;0.33;;;;;;;13.06;68.98;100050.72;5052313;28;20048;-83
2023/09/23 01:34:56;;;;;;;2.17;0.30;;;;;;;13.03;69.12;100050.78;5052722;28;20064;-84
2023/09/23 01:37:23;;;;;;;2.28;0.30;;;;;;;13.02;68.99;100049.91;5052703;28;20119;-85
2023/09/23 01:39:48;;;;;;;3.73;0.30;;;;;;;13.01;68.86;100058.72;5052889;28;20031;-80
2023/09/23 01:42:14;;;;;;;2.90;0.40;;;;;;;13.00;68.94;100064.91;5052788;28;20020;-80
2023/09/23 01:44:40;;;;;;;2.97;0.40;;;;;;;12.98;68.88;100066.69;5072204;28;20107;-82
2023/09/23 01:47:05;;;;;;;3.28;0.38;;;;;;;12.98;68.84;100057.91;5072196;28;20077;-80
2023/09/23 01:49:31;;;;;;;3.00;0.50;;;;;;;12.95;68.96;100064.13;5072353;28;20059;-81
2023/09/23 01:51:57;;;;;;;2.33;0.30;;;;;;;12.90;68.89;100066.84;5072209;28;20107;-86
2023/09/23 01:54:22;;;;;;;4.40;0.53;;;;;;;12.86;68.85;100067.78;5052981;28;20094;-81
2023/09/23 01:56:47;;;;;;;4.33;0.43;;;;;;;12.84;69.08;100058.16;5052345;28;20029;-80
2023/09/23 01:59:13;;;;;;;3.20;0.30;;;;;;;12.80;68.78;100054.69;5054032;28;20029;-80
2023/09/23 02:01:40;;;;;;;2.60;0.20;;;;;;;12.76;68.83;100059.13;5072316;28;20029;-82
2023/09/23 02:04:09;;;;;;;2.92;0.38;;;;;;;12.75;68.81;100056.53;5054049;28;20119;-80
2023/09/23 02:06:42;;;;;;;2.40;0.32;;;;;;;12.71;68.81;100065.41;5072684;28;20506;-80
2023/09/23 02:09:09;;;;;;;2.35;0.30;;;;;;;12.68;68.99;100070.75;5056852;28;20043;-80
2023/09/23 02:11:37;;;;;;;3.17;0.40;;;;;;;12.67;68.85;100074.28;5051961;28;20037;-81
2023/09/23 02:14:04;;;;;;;2.33;0.30;;;;;;;12.64;68.89;100075.19;5034110;28;20025;-81
2023/09/23 02:16:30;;;;;;;2.45;0.40;;;;;;;12.62;68.79;100077.84;5051866;28;20542;-84
2023/09/23 02:18:55;;;;;;;2.20;0.40;;;;;;;12.60;68.76;100076.16;5034008;28;20033;-82
2023/09/23 02:21:20;;;;;;;3.53;0.30;;;;;;;12.56;68.66;100079.75;5051648;28;20032;-80
2023/09/23 02:23:46;;;;;;;3.57;0.40;;;;;;;12.47;68.91;100072.81;5051640;28;20033;-80
2023/09/23 02:26:12;;;;;;;2.67;0.40;;;;;;;12.42;68.97;100070.25;5051508;28;20024;-81
2023/09/23 02:28:38;;;;;;;3.80;0.40;;;;;;;12.39;69.12;100070.28;5051720;28;20037;-81
2023/09/23 02:31:04;;;;;;;3.20;0.47;;;;;;;12.40;68.97;100071.16;5051070;28;20064;-81
2023/09/23 02:33:30;;;;;;;2.20;0.37;;;;;;;12.39;69.09;100074.69;5051496;28;20378;-83
2023/09/23 02:35:56;;;;;;;4.20;0.30;;;;;;;12.35;69.19;100077.38;5051594;28;20431;-84
2023/09/23 02:38:22;;;;;;;2.25;0.30;;;;;;;12.34;69.27;100083.56;5051312;28;20122;-87
2023/09/23 02:40:50;;;;;;;3.30;0.30;;;;;;;12.33;69.07;100083.59;5033409;28;20072;-85
2023/09/23 02:43:18;;;;;;;4.32;0.40;;;;;;;12.30;69.39;100083.63;5059719;28;20020;-85
2023/09/23 02:45:47;;;;;;;4.55;0.50;;;;;;;12.29;69.36;100085.38;5073209;28;20052;-87
2023/09/23 02:48:13;;;;;;;3.92;0.40;;;;;;;12.28;69.69;100078.38;5072286;28;20024;-81
2023/09/23 02:50:39;;;;;;;2.78;0.40;;;;;;;12.30;69.33;100083.63;5051619;28;20116;-82
2023/09/23 02:53:04;;;;;;;3.63;0.40;;;;;;;12.29;69.50;100084.50;5051244;28;20104;-81
2023/09/23 02:55:29;;;;;;;4.93;0.50;;;;;;;12.26;69.25;100089.81;5051260;28;20029;-81
2023/09/23 02:57:55;;;;;;;2.43;0.40;;;;;;;12.23;69.20;100096.03;5051149;28;20120;-86
2023/09/23 03:00:23;;;;;;;4.90;0.57;;;;;;;12.20;69.34;100096.09;5062134;28;20059;-86
2023/09/23 03:02:53;;;;;;;3.47;0.47;;;;;;;12.18;69.39;100097.88;5053117;28;20028;-87
2023/09/23 03:05:25;;;;;;;2.90;0.50;;;;;;;12.13;69.34;100090.00;5071070;28;20029;-87
2023/09/23 03:07:51;;;;;;;4.10;0.38;;;;;;;12.12;69.27;100093.53;5082433;28;20024;-81
2023/09/23 03:10:29;;;;;;;3.88;0.32;;;;;;;12.09;69.51;100097.97;5091475;28;20028;-81
2023/09/23 03:13:02;;;;;;;5.28;1.27;;;;;;;12.07;69.68;100095.38;5091158;28;20051;-82
2023/09/23 03:15:33;;;;;;;2.60;0.30;;;;;;;12.05;69.77;100097.13;5073098;28;20115;-83
2023/09/23 03:18:00;;;;;;;5.55;0.65;;;;;;;12.06;69.64;100094.50;5070855;28;20117;-85
2023/09/23 03:20:26;;;;;;;2.47;0.32;;;;;;;12.06;69.56;100096.28;5070495;28;20119;-85
2023/09/23 03:22:53;;;;;;;4.45;0.40;;;;;;;12.04;69.56;100096.28;5070751;28;20103;-82
2023/09/23 03:25:20;;;;;;;1.63;0.20;;;;;;;12.03;69.40;100091.00;5069483;28;20056;-82
2023/09/23 03:27:51;;;;;;;3.07;0.40;;;;;;;12.02;69.34;100095.44;5050591;28;20025;-85
2023/09/23 03:30:17;;;;;;;2.55;0.30;;;;;;;11.99;69.43;100092.81;5050766;28;20269;-81
2023/09/23 03:32:45;;;;;;;2.97;0.45;;;;;;;11.97;69.60;100094.59;5050149;28;20072;-81
2023/09/23 03:35:14;;;;;;;3.85;0.40;;;;;;;11.91;69.52;100095.53;5050379;28;20470;-81
2023/09/23 03:37:39;;;;;;;1.92;0.30;;;;;;;11.87;69.69;100095.56;5050266;28;20033;-81
2023/09/23 03:40:07;;;;;;;2.23;0.40;;;;;;;11.86;69.48;100093.81;5050306;28;20040;-84
2023/09/23 03:42:33;;;;;;;3.17;0.40;;;;;;;11.87;69.75;100092.94;5052566;28;20039;-85
2023/09/23 03:44:58;;;;;;;3.33;0.30;;;;;;;11.86;69.43;100088.56;5066538;28;20028;-86
2023/09/23 03:47:25;;;;;;;2.22;0.38;;;;;;;11.87;69.45;100100.84;5050338;28;20593;-82
2023/09/23 03:49:51;;;;;;;3.77;0.30;;;;;;;11.84;69.63;100098.25;5050217;28;20029;-84
2023/09/23 03:52:16;;;;;;;3.15;0.60;;;;;;;11.81;69.74;100104.44;5050193;28;20035;-84
2023/09/23 03:54:42;;;;;;;1.87;0.30;;;;;;;11.80;69.44;100104.47;5049996;28;20115;-83
2023/09/23 03:57:07;;;;;;;2.33;0.30;;;;;;;11.78;69.76;100107.09;5049996;28;20100;-82
2023/09/23 03:59:34;;;;;;;2.55;0.32;;;;;;;11.75;69.65;100110.66;5054181;28;20498;-81
2023/09/23 04:02:00;;;;;;;3.72;0.95;;;;;;;11.74;69.80;100106.28;5070072;28;20028;-81
2023/09/23 04:04:25;;;;;;;2.23;0.30;;;;;;;11.72;69.55;100110.72;5069892;28;20099;-86
2023/09/23 04:06:51;;;;;;;3.20;0.30;;;;;;;11.71;69.62;100098.41;5072886;28;20021;-86
2023/09/23 04:09:16;;;;;;;2.57;0.30;;;;;;;11.69;69.82;100104.59;5071940;28;20032;-82
2023/09/23 04:11:42;;;;;;;4.70;0.40;;;;;;;11.68;69.84;100116.03;5071827;28;20047;-81
2023/09/23 04:14:07;;;;;;;2.38;0.35;;;;;;;11.65;70.08;100109.00;5082961;28;20035;-82
2023/09/23 04:16:33;;;;;;;2.80;0.60;;;;;;;11.62;70.08;100103.78;5051451;28;20539;-86
2023/09/23 04:18:58;;;;;;;4.63;0.63;;;;;;;11.58;70.40;100107.34;5069474;28;20032;-87
2023/09/23 04:21:25;;;;;;;2.43;0.40;;;;;;;11.56;70.35;100109.97;5069702;28;20044;-81
2023/09/23 04:23:52;;;;;;;2.65;0.30;;;;;;;11.58;70.50;100112.63;5069752;28;20028;-81
2023/09/23 04:26:21;;;;;;;4.63;0.50;;;;;;;11.58;70.33;100110.88;5060847;28;20029;-85
2023/09/23 04:28:48;;;;;;;3.70;0.40;;;;;;;11.56;70.46;100109.13;5049705;28;20052;-84
2023/09/23 04:31:13;;;;;;;2.72;0.52;;;;;;;11.57;70.55;100119.63;5049558;28;20257;-85
2023/09/23 04:33:39;;;;;;;2.30;0.30;;;;;;;11.56;70.67;100122.31;5031392;28;20424;-85
2023/09/23 04:36:09;;;;;;;2.80;0.40;;;;;;;11.56;70.90;100120.53;5049830;28;20024;-85
2023/09/23 04:38:34;;;;;;;2.50;0.30;;;;;;;11.60;70.61;100118.75;5049392;28;20428;-85
2023/09/23 04:41:01;;;;;;;4.00;0.53;;;;;;;11.62;70.89;100119.59;5052626;28;20024;-85
2023/09/23 04:43:30;;;;;;;5.15;0.35;;;;;;;11.66;70.86;100126.59;5059569;28;20098;-84
2023/09/23 04:45:56;;;;;;;3.22;0.40;;;;;;;11.70;70.66;100130.06;5069545;28;20024;-82
2023/09/23 04:48:24;;;;;;;1.90;0.30;;;;;;;11.72;70.70;100138.84;5069422;28;20021;-81
2023/09/23 04:50:52;;;;;;;6.20;0.60;;;;;;;11.73;70.84;100136.19;5069426;28;20027;-82
2023/09/23 04:53:17;;;;;;;3.63;0.40;;;;;;;11.73;70.68;100135.31;5070394;28;20048;-86
2023/09/23 04:55:45;;;;;;;4.60;0.50;;;;;;;11.74;70.76;100135.31;5076078;28;20473;-81
2023/09/23 04:58:12;;;;;;;5.70;0.50;;;;;;;11.75;70.67;100138.81;5037966;28;20083;-82
2023/09/23 05:00:38;;;;;;;3.88;0.35;;;;;;;11.74;70.86;100139.69;5069693;28;20028;-82
2023/09/23 05:03:05;;;;;;;3.67;0.60;;;;;;;11.68;71.32;100135.34;5076082;28;20425;-85
2023/09/23 05:05:31;;;;;;;4.25;0.40;;;;;;;11.68;71.06;100134.50;5076009;28;20035;-86
2023/09/23 05:07:59;;;;;;;4.22;0.40;;;;;;;11.70;71.41;100132.72;5088593;28;20479;-83
2023/09/23 05:10:26;;;;;;;2.05;0.20;;;;;;;11.75;71.18;100149.34;5096123;28;20020;-83
2023/09/23 05:12:56;;;;;;;3.30;0.30;;;;;;;11.78;71.31;100147.56;5096110;28;20039;-82
2023/09/23 05:15:22;;;;;;;2.37;0.40;;;;;;;11.83;71.17;100149.28;5079212;28;20112;-82
2023/09/23 05:17:49;;;;;;;3.55;0.30;;;;;;;11.84;71.37;100146.63;5075647;28;20068;-82
2023/09/23 05:20:15;;;;;;;6.28;1.50;;;;;;;11.85;71.33;100147.50;5075929;28;20377;-82
2023/09/23 05:22:41;;;;;;;6.72;0.52;;;;;;;11.84;71.25;100157.19;5057740;28;20028;-82
2023/09/23 05:25:07;;;;;;;3.57;0.40;;;;;;;11.86;71.17;100165.06;5075755;28;20061;-81
2023/09/23 05:27:33;;;;;;;4.20;0.73;;;;;;;11.83;71.24;100171.28;5056002;28;20484;-86
2023/09/23 05:29:58;;;;;;;5.40;0.43;;;;;;;11.83;71.27;100170.38;5055724;28;20025;-85
2023/09/23 05:32:23;;;;;;;2.60;0.40;;;;;;;11.81;71.11;100173.03;5055656;28;20420;-82
2023/09/23 05:34:54;;;;;;;4.87;0.40;;;;;;;11.78;71.40;100179.22;5055742;28;20283;-82
2023/09/23 05:37:20;;;;;;;3.17;0.40;;;;;;;11.76;71.35;100181.00;5058703;28;20059;-82
2023/09/23 05:39:45;;;;;;;3.73;0.50;;;;;;;11.71;71.74;100180.19;5056172;28;20078;-82
2023/09/23 05:42:13;;;;;;;2.97;0.40;;;;;;;11.67;71.58;100186.34;5055707;28;20400;-84
2023/09/23 05:44:40;;;;;;;3.25;0.45;;;;;;;11.66;72.07;100189.88;5075700;28;20218;-86
2023/09/23 05:47:06;;;;;;;4.25;0.40;;;;;;;11.66;72.10;100195.16;5075386;28;20037;-82
2023/09/23 05:49:31;;;;;;;4.50;0.60;;;;;;;11.63;71.97;100197.84;5075467;28;20423;-82
2023/09/23 05:51:57;;;;;;;5.20;0.53;;;;;;;11.60;71.69;100203.13;5075453;28;20032;-82
2023/09/23 05:54:23;;;;;;;3.20;0.43;;;;;;;11.55;72.32;100207.59;5075580;28;20071;-85
2023/09/23 05:56:48;;;;;;;4.60;0.63;;;;;;;11.51;72.46;100205.88;5075857;28;20025;-86
2023/09/23 05:59:15;;;;;;;2.72;0.40;;;;;;;11.47;72.20;100205.91;5073561;28;20039;-85
2023/09/23 06:01:41;;;;;;;3.97;0.53;;;;;;;11.46;72.39;100214.72;5055734;28;20543;-83
2023/09/23 06:04:09;;;;;;;2.83;0.50;;;;;;;11.44;72.77;100220.88;5055385;28;20061;-82
2023/09/23 06:06:37;;;;;;;3.22;0.30;;;;;;;11.42;72.76;100223.50;5052782;28;20303;-82
2023/09/23 06:09:03;;;;;;;3.23;0.40;;;;;;;11.43;72.51;100213.84;5074256;28;20086;-83
2023/09/23 06:11:29;;;;;;;4.22;0.35;;;;;;;11.54;72.19;100219.03;5092731;28;20379;-83
2023/09/23 06:13:54;;;;;;;2.57;0.30;;;;;;;11.81;71.46;100217.88;5087565;28;20162;-86
2023/09/23 06:16:19;;;;;;;3.70;0.30;;;;;;;12.07;70.69;100216.78;5072290;28;20027;-83
2023/09/23 06:18:45;;;;;;;2.40;0.30;;;;;;;12.23;70.08;100220.13;5072558;28;20033;-86
2023/09/23 06:21:10;;;;;;;7.00;0.57;;;;;;;12.39;69.79;100217.28;5072032;28;20028;-82
2023/09/23 06:23:36;;;;;;;2.37;0.30;;;;;;;12.62;69.29;100224.94;5073271;28;20395;-86
2023/09/23 06:26:02;;;;;;;2.70;0.40;;;;;;;12.86;68.70;100230.78;5065046;28;20472;-86
2023/09/23 06:28:30;;;;;;;3.42;0.38;;;;;;;13.07;67.83;100234.88;5051935;28;20100;-86
2023/09/23 06:30:56;;;;;;;3.33;0.30;;;;;;;13.07;68.24;100227.81;5052021;28;20535;-86
2023/09/23 06:33:22;;;;;;;2.47;0.30;;;;;;;13.01;68.31;100232.31;5036825;28;20036;-85
2023/09/23 06:35:48;;;;;;;2.93;0.30;;;;;;;13.04;68.33;100237.56;5051821;28;20041;-88
2023/09/23 06:38:13;;;;;;;2.42;0.35;;;;;;;13.16;67.88;100237.38;5051629;28;20032;-85
2023/09/23 06:40:39;;;;;;;2.17;0.30;;;;;;;13.36;67.81;100244.09;5051660;28;20033;-86
2023/09/23 06:43:04;;;;;;;5.00;0.40;;;;;;;13.59;67.33;100248.19;5058281;28;20503;-85
2023/09/23 06:45:30;;;;;;;2.92;0.40;;;;;;;13.81;66.94;100253.09;5072209;28;20055;-87
2023/09/23 06:47:55;;;;;;;2.30;0.37;;;;;;;14.02;66.44;100250.06;5053867;28;20045;-85
2023/09/23 06:50:21;;;;;;;5.67;0.47;;;;;;;14.17;66.64;100254.19;5071609;28;20032;-85
2023/09/23 06:52:46;;;;;;;2.40;0.40;;;;;;;14.29;66.54;100261.03;5071465;28;20039;-86
2023/09/23 06:55:12;;;;;;;6.27;0.53;;;;;;;14.34;66.50;100256.53;5061806;28;20036;-86
2023/09/23 06:57:37;;;;;;;5.93;0.80;;;;;;;14.34;67.10;100261.81;5060739;28;20033;-88
2023/09/23 07:00:05;;;;;;;3.47;0.63;;;;;;;14.32;67.28;100268.94;5062432;28;20024;-82
2023/09/23 07:02:30;;;;;;;3.20;0.50;;;;;;;14.41;67.19;100251.97;5071152;28;20025;-82
2023/09/23 07:04:55;;;;;;;3.60;0.40;;;;;;;14.57;67.15;100257.81;5071178;28;20086;-82
2023/09/23 07:07:21;;;;;;;6.73;0.67;;;;;;;14.75;67.01;100266.34;5078369;28;20020;-82
2023/09/23 07:09:46;;;;;;;3.47;0.50;;;;;;;14.95;66.88;100273.00;5073337;28;20054;-82
2023/09/23 07:12:12;;;;;;;4.47;0.70;;;;;;;15.06;66.55;100266.53;5091487;28;20448;-82
2023/09/23 07:14:42;;;;;;;3.43;0.50;;;;;;;15.18;66.51;100261.84;5067928;28;20182;-85
2023/09/23 07:17:07;;;;;;;3.08;0.50;;;;;;;15.34;66.43;100271.19;5052350;28;20033;-83
2023/09/23 07:19:34;;;;;;;4.33;0.43;;;;;;;15.47;66.28;100277.09;5070709;28;20049;-86
2023/09/23 07:21:59;;;;;;;3.75;0.40;;;;;;;15.63;66.31;100276.72;5058376;28;20013;-93
2023/09/23 07:24:26;;;;;;;4.80;0.40;;;;;;;15.60;66.31;100280.31;5051593;28;20055;-82
2023/09/23 07:26:58;;;;;;;3.10;0.60;;;;;;;15.58;66.51;100276.81;5049860;28;20028;-79
2023/09/23 07:29:24;;;;;;;3.83;0.40;;;;;;;15.57;66.66;100287.50;5053654;28;20021;-81
2023/09/23 07:31:50;;;;;;;5.13;0.50;;;;;;;15.52;66.91;100289.38;5065477;28;20040;-79
2023/09/23 07:34:15;;;;;;;6.25;0.82;;;;;;;15.49;67.25;100293.84;5073242;28;20373;-80
2023/09/23 07:36:42;;;;;;;3.50;0.50;;;;;;;15.47;67.13;100292.16;5073230;28;20092;-82
2023/09/23 07:39:07;;;;;;;6.05;0.50;;;;;;;15.48;66.97;100293.91;5079510;28;20024;-79
2023/09/23 07:41:34;;;;;;;3.60;0.50;;;;;;;15.53;67.38;100297.31;5082164;28;20032;-80
2023/09/23 07:43:59;;;;;;;6.63;0.52;;;;;;;15.57;67.38;100303.41;5091391;28;20432;-88
2023/09/23 07:46:25;;;;;;;6.60;0.50;;;;;;;15.57;67.56;100298.97;5087713;28;20040;-80
2023/09/23 07:48:50;;;;;;;3.13;0.50;;;;;;;15.60;67.62;100298.03;5076122;28;20042;-80
2023/09/23 07:51:16;;;;;;;3.83;0.60;;;;;;;15.63;67.34;100313.88;5074929;28;20487;-85
2023/09/23 07:53:42;;;;;;;9.40;0.80;;;;;;;15.63;67.23;100313.88;5074474;28;20028;-90
2023/09/23 07:56:09;;;;;;;6.40;0.53;;;;;;;15.69;67.19;100319.03;5083613;28;20032;-89
2023/09/23 07:58:34;;;;;;;4.22;0.50;;;;;;;15.85;66.99;100326.63;5091967;28;20038;-82
2023/09/23 08:01:00;;;;;;;6.03;0.83;;;;;;;16.07;66.73;100314.59;5071042;28;20028;-83
2023/09/23 08:03:26;;;;;;;8.93;0.70;;;;;;;16.39;66.42;100309.28;5069988;28;20024;-82
2023/09/23 08:05:53;;;;;;;4.78;0.73;;;;;;;16.65;65.80;100321.88;5082953;28;20077;-85
2023/09/23 08:08:19;;;;;;;5.00;0.50;;;;;;;16.83;65.37;100311.63;5082119;28;20035;-84
2023/09/23 08:10:44;;;;;;;5.20;0.60;;;;;;;16.99;64.71;100312.06;5071165;28;20104;-95
2023/09/23 08:13:10;;;;;;;5.53;0.80;;;;;;;17.17;64.62;100323.06;5074079;28;20030;-88
2023/09/23 08:15:35;;;;;;;7.90;0.55;;;;;;;17.17;64.58;100328.41;5071132;28;20035;-90
2023/09/23 08:18:00;;;;;;;3.17;0.50;;;;;;;17.20;64.62;100323.81;5070759;28;20052;-92
2023/09/23 08:20:26;;;;;;;5.37;0.60;;;;;;;17.30;64.57;100327.09;5070742;28;20476;-88
2023/09/23 08:22:53;;;;;;;5.90;0.60;;;;;;;17.46;64.25;100334.59;5070686;28;20761;-90
2023/09/23 08:25:18;;;;;;;5.82;0.70;;;;;;;17.62;63.88;100334.97;5070454;28;20384;-94
2023/09/23 08:27:44;;;;;;;5.23;0.57;;;;;;;17.75;63.53;100346.97;5073239;28;20037;-80
2023/09/23 08:30:11;;;;;;;5.27;0.77;;;;;;;17.92;63.49;100354.41;5069542;28;20273;-82
2023/09/23 08:32:39;;;;;;;5.05;0.70;;;;;;;18.04;63.26;100346.94;5052655;28;20388;-82
2023/09/23 08:35:07;;;;;;;5.18;0.50;;;;;;;18.25;62.88;100342.69;5049633;28;20028;-81
2023/09/23 08:37:33;;;;;;;4.90;0.68;;;;;;;18.42;62.64;100338.53;5049886;28;20424;-91
2023/09/23 08:39:59;;;;;;;6.47;0.82;;;;;;;18.56;61.58;100349.59;5050625;28;20041;-91
2023/09/23 08:42:25;;;;;;;4.93;0.97;;;;;;;18.61;61.53;100355.63;5062608;28;20215;-93
2023/09/23 08:44:51;;;;;;;4.93;0.73;;;;;;;18.72;61.51;100349.03;5049584;28;20088;-82
2023/09/23 08:47:20;;;;;;;5.07;0.80;;;;;;;18.88;60.62;100365.34;5049403;28;20041;-82
2023/09/23 08:49:49;;;;;;;4.80;0.60;;;;;;;18.99;60.93;100365.00;5049485;28;20272;-82
2023/09/23 08:52:18;;;;;;;5.57;0.40;;;;;;;19.07;59.71;100370.91;5049488;28;20052;-81
2023/09/23 08:54:49;;;;;;;3.35;0.60;;;;;;;19.06;59.07;100374.50;5049923;28;20102;-87
2023/09/23 08:57:16;;;;;;;4.55;0.55;;;;;;;19.13;59.38;100381.31;5053806;28;20108;-93
2023/09/23 08:59:42;;;;;;;5.90;0.70;;;;;;;19.16;59.68;100375.88;5043938;28;20510;-85
2023/09/23 09:02:07;;;;;;;3.27;0.50;;;;;;;19.25;59.21;100381.81;5070603;28;20181;-94
2023/09/23 09:04:33;;;;;;;3.92;0.52;;;;;;;19.29;59.26;100375.41;5070421;28;20099;-94
2023/09/23 09:06:58;;;;;;;7.97;0.93;;;;;;;19.28;59.48;100379.88;5074922;28;20027;-87
2023/09/23 09:09:25;;;;;;;4.03;0.57;;;;;;;19.31;59.26;100382.44;5090317;28;20044;-88
2023/09/23 09:11:53;;;;;;;7.27;0.60;;;;;;;19.38;59.14;100384.88;5051704;28;20627;-82
2023/09/23 09:14:19;;;;;;;4.78;0.60;;;;;;;19.47;58.80;100380.03;5054908;28;20021;-86
2023/09/23 09:16:45;;;;;;;9.27;1.02;;;;;;;19.58;58.29;100384.06;5069679;28;20052;-81
2023/09/23 09:19:11;;;;;;;4.00;0.83;;;;;;;19.72;58.21;100383.53;5049524;28;20370;-79
2023/09/23 09:21:36;;;;;;;6.57;0.60;;;;;;;19.88;57.80;100391.78;5059233;28;20035;-80
2023/09/23 09:24:02;;;;;;;4.93;0.70;;;;;;;20.01;57.24;100385.03;5056220;28;20025;-87
2023/09/23 09:26:28;;;;;;;4.10;0.60;;;;;;;20.14;56.55;100387.22;5041381;28;20032;-88
2023/09/23 09:28:53;;;;;;;5.13;0.70;;;;;;;20.28;57.27;100384.81;5051789;28;20527;-82
2023/09/23 09:31:19;;;;;;;4.07;0.73;;;;;;;20.51;56.80;100389.19;5049149;28;20052;-83
2023/09/23 09:33:47;;;;;;;4.80;0.70;;;;;;;20.71;56.27;100382.06;5048850;28;20627;-82
2023/09/23 09:36:17;;;;;;;3.65;0.50;;;;;;;20.83;55.49;100383.34;5048872;28;20029;-82
2023/09/23 09:38:44;;;;;;;4.70;0.70;;;;;;;20.93;55.09;100379.31;5062767;28;20036;-82
2023/09/23 09:41:18;;;;;;;5.85;0.50;;;;;;;21.03;55.07;100381.56;5071853;28;20024;-82
2023/09/23 09:43:45;;;;;;;4.55;0.70;;;;;;;21.19;53.69;100381.72;5060647;28;20548;-83
2023/09/23 09:46:13;;;;;;;4.47;0.50;;;;;;;21.26;53.12;100379.63;5052855;28;20028;-81
2023/09/23 09:48:41;;;;;;;6.95;0.65;;;;;;;21.24;53.25;100387.75;5052372;28;20031;-81
2023/09/23 09:51:08;;;;;;;4.40;0.67;;;;;;;21.21;53.54;100387.88;5052928;28;20108;-81
2023/09/23 09:53:36;;;;;;;4.05;0.55;;;;;;;21.07;53.48;100392.06;5052424;28;20017;-81
2023/09/23 09:56:04;;;;;;;5.20;0.70;;;;;;;21.06;53.51;100389.44;5052648;28;20030;-82
2023/09/23 09:58:40;;;;;;;6.32;0.60;;;;;;;21.16;53.49;100385.44;5052765;28;20036;-82
2023/09/23 10:01:11;;;;;;;3.92;0.88;;;;;;;21.37;52.20;100382.69;5069625;28;20036;-82
2023/09/23 10:03:37;;;;;;;4.23;0.50;;;;;;;21.56;52.76;100381.78;5072639;28;20027;-83
2023/09/23 10:06:03;;;;;;;5.70;0.90;;;;;;;21.67;51.94;100383.97;5052247;28;20242;-82
2023/09/23 10:08:38;;;;;;;4.35;0.60;;;;;;;21.69;51.93;100376.72;5085466;28;20036;-82
2023/09/23 10:11:08;;;;;;;5.97;0.70;;;;;;;21.70;50.54;100376.66;5093033;28;20367;-82
2023/09/23 10:13:33;;;;;;;4.57;0.70;;;;;;;21.67;51.11;100370.56;5092520;28;20104;-82
2023/09/23 10:16:06;;;;;;;3.00;0.50;;;;;;;21.63;51.35;100383.25;5092342;28;20036;-82
2023/09/23 10:18:40;;;;;;;4.50;0.73;;;;;;;21.69;51.55;100366.88;5081395;28;20559;-82
2023/09/23 10:21:06;;;;;;;4.97;0.70;;;;;;;21.94;50.61;100368.34;5052348;28;20428;-81
2023/09/23 10:23:35;;;;;;;4.97;0.70;;;;;;;22.07;50.29;100371.28;5051998;28;20029;-81
2023/09/23 10:26:16;;;;;;;4.93;0.70;;;;;;;22.27;49.79;100380.13;5051881;28;20206;-82
2023/09/23 10:28:43;;;;;;;5.07;1.02;;;;;;;22.50;50.02;100373.59;5052004;28;20037;-82
2023/09/23 10:31:09;;;;;;;3.80;0.73;;;;;;;22.75;49.79;100370.50;5051737;28;20238;-82
2023/09/23 10:33:36;;;;;;;5.47;1.13;;;;;;;22.88;48.95;100376.06;5054174;28;20033;-81
2023/09/23 10:36:04;;;;;;;7.50;1.05;;;;;;;22.79;48.08;100371.19;5071700;28;20074;-81
2023/09/23 10:38:34;;;;;;;15.65;1.55;;;;;;;22.59;47.33;100372.25;5071644;28;20032;-81
2023/09/23 10:41:01;;;;;;;4.57;0.73;;;;;;;22.49;47.52;100367.38;5071434;28;20438;-82
2023/09/23 10:43:27;;;;;;;6.03;0.90;;;;;;;22.47;46.96;100379.13;5061797;28;20084;-81
2023/09/23 10:45:54;;;;;;;7.27;0.90;;;;;;;22.48;47.18;100378.16;5051746;28;20086;-82
2023/09/23 10:48:20;;;;;;;4.13;0.80;;;;;;;22.43;47.42;100374.84;5055033;28;20033;-81
2023/09/23 10:50:46;;;;;;;5.45;0.90;;;;;;;22.42;47.22;100381.16;5052231;28;20047;-82
2023/09/23 10:53:12;;;;;;;4.28;0.80;;;;;;;22.49;46.80;100379.91;5050967;28;20036;-82
2023/09/23 10:55:39;;;;;;;4.00;0.80;;;;;;;22.70;46.14;100369.88;5051431;28;20461;-81
2023/09/23 10:58:08;;;;;;;5.03;0.80;;;;;;;22.77;46.13;100370.38;5067571;28;20041;-80
2023/09/23 11:00:36;;;;;;;5.32;0.80;;;;;;;22.79;46.00;100363.16;5058137;28;20029;-80
2023/09/23 11:03:13;;;;;;;3.72;0.70;;;;;;;22.85;45.69;100362.81;5033319;28;20025;-82
2023/09/23 11:05:39;;;;;;;5.28;0.85;;;;;;;23.09;45.47;100363.28;5052385;28;20090;-81
2023/09/23 11:08:06;;;;;;;6.00;0.80;;;;;;;23.17;45.37;100357.47;5071797;28;20033;-85
2023/09/23 11:10:34;;;;;;;7.10;0.90;;;;;;;23.26;44.91;100357.94;5062015;28;20067;-81
2023/09/23 11:13:00;;;;;;;5.68;1.00;;;;;;;23.48;44.14;100344.19;5047320;28;20025;-80
2023/09/23 11:15:25;;;;;;;4.47;1.00;;;;;;;23.69;43.52;100355.50;5064172;28;20096;-80
2023/09/23 11:17:54;;;;;;;14.05;4.25;;;;;;;23.70;42.64;100354.56;5065256;28;20040;-84
2023/09/23 11:20:30;;;;;;;28.05;8.68;;;;;;;23.60;42.87;100350.66;5071523;28;20025;-83
2023/09/23 11:23:05;;;;;;;20.30;6.90;;;;;;;23.64;42.84;100346.84;5053112;28;20021;-80